createdAt,value
2023-09-06T00:01:06.389Z,99874.81
2023-09-06T00:03:37.552Z,99874.63
2023-09-06T00:06:06.965Z,99880.34
2023-09-06T00:08:36.833Z,99876.03
2023-09-06T00:11:08.197Z,99881.75
2023-09-06T00:13:38.112Z,99874.66
2023-09-06T00:16:08.859Z,99877.25
2023-09-06T00:18:39.003Z,99884.91
2023-09-06T00:21:07.605Z,99881.97
2023-09-06T00:23:37.547Z,99878.16
2023-09-06T00:26:06.113Z,99878.28
2023-09-06T00:28:34.573Z,99872.00
2023-09-06T00:31:03.185Z,99873.28
2023-09-06T00:33:34.559Z,99873.09
2023-09-06T00:36:05.527Z,99880.78
2023-09-06T00:38:34.212Z,99881.41
2023-09-06T00:41:04.077Z,99873.97
2023-09-06T00:43:32.668Z,99874.63
2023-09-06T00:46:07.811Z,99874.41
2023-09-06T00:48:37.769Z,99871.97
2023-09-06T00:51:08.586Z,99868.34
2023-09-06T00:53:37.880Z,99856.34
2023-09-06T00:56:10.318Z,99853.06
2023-09-06T00:58:39.596Z,99858.63
2023-09-06T01:01:08.187Z,99863.34
2023-09-06T01:03:37.047Z,99859.72
2023-09-06T01:06:11.352Z,99864.81
2023-09-06T01:08:47.431Z,99864.28
2023-09-06T01:11:23.042Z,99866.59
2023-09-06T01:13:53.802Z,99866.91
2023-09-06T01:16:30.775Z,99872.28
2023-09-06T01:19:00.418Z,99869.19
2023-09-06T01:21:36.621Z,99858.97
2023-09-06T01:24:08.360Z,99866.81
2023-09-06T01:26:37.753Z,99859.59
2023-09-06T01:29:06.585Z,99859.94
2023-09-06T01:31:35.282Z,99859.09
2023-09-06T01:34:03.789Z,99863.53
2023-09-06T01:36:32.345Z,99859.09
2023-09-06T01:39:00.918Z,99859.94
2023-09-06T01:41:30.956Z,99866.63
2023-09-06T01:44:01.929Z,99871.09
2023-09-06T01:46:30.637Z,99870.25
2023-09-06T01:49:00.538Z,99871.09
2023-09-06T01:51:29.222Z,99870.75
2023-09-06T01:53:57.681Z,99877.97
2023-09-06T01:56:26.130Z,99874.06
2023-09-06T01:58:56.159Z,99870.44
2023-09-06T02:01:24.707Z,99865.38
2023-09-06T02:03:53.435Z,99857.00
2023-09-06T02:06:22.126Z,99868.97
2023-09-06T02:08:50.788Z,99870.94
2023-09-06T02:11:19.323Z,99866.53
2023-09-06T02:13:47.772Z,99876.84
2023-09-06T02:16:19.327Z,99866.31
2023-09-06T02:18:47.904Z,99870.75
2023-09-06T02:21:16.369Z,99870.25
2023-09-06T02:23:45.196Z,99873.34
2023-09-06T02:26:13.680Z,99877.59
2023-09-06T02:28:42.135Z,99879.06
2023-09-06T02:31:10.663Z,99870.97
2023-09-06T02:33:41.247Z,99866.84
2023-09-06T02:36:09.834Z,99856.03
2023-09-06T02:38:38.235Z,99864.72
2023-09-06T02:41:06.696Z,99861.41
2023-09-06T02:43:35.165Z,99866.78
2023-09-06T02:46:04.543Z,99871.53
2023-09-06T02:48:34.956Z,99871.34
2023-09-06T02:51:09.325Z,99874.41
2023-09-06T02:53:44.332Z,99877.22
2023-09-06T02:56:15.263Z,99878.69
2023-09-06T02:58:44.419Z,99880.13
2023-09-06T03:01:21.591Z,99881.25
2023-09-06T03:03:52.842Z,99888.28
2023-09-06T03:06:33.901Z,99889.72
2023-09-06T03:09:07.709Z,99879.22
2023-09-06T03:11:36.726Z,99885.41
2023-09-06T03:14:06.916Z,99879.31
2023-09-06T03:16:40.245Z,99885.19
2023-09-06T03:19:11.341Z,99885.84
2023-09-06T03:21:41.619Z,99887.28
2023-09-06T03:24:13.898Z,99885.09
2023-09-06T03:26:45.223Z,99886.53
2023-09-06T03:29:16.572Z,99875.47
2023-09-06T03:31:45.612Z,99881.38
2023-09-06T03:34:16.843Z,99881.97
2023-09-06T03:36:52.859Z,99878.69
2023-09-06T03:39:21.612Z,99879.31
2023-09-06T03:41:50.178Z,99884.34
2023-09-06T03:44:19.194Z,99883.03
2023-09-06T03:46:48.001Z,99879.69
2023-09-06T03:49:16.837Z,99876.41
2023-09-06T03:51:46.976Z,99876.72
2023-09-06T03:54:18.583Z,99883.72
2023-09-06T03:56:47.412Z,99882.09
2023-09-06T03:59:16.498Z,99891.06
2023-09-06T04:01:45.542Z,99885.78
2023-09-06T04:04:15.152Z,99893.34
2023-09-06T04:06:44.403Z,99896.41
2023-09-06T04:09:15.209Z,99886.69
2023-09-06T04:11:43.900Z,99884.25
2023-09-06T04:14:12.439Z,99880.63
2023-09-06T04:16:41.029Z,99879.00
2023-09-06T04:19:10.068Z,99880.09
2023-09-06T04:21:41.676Z,99890.72
2023-09-06T04:24:10.533Z,99881.53
2023-09-06T04:26:40.497Z,99895.78
2023-09-06T04:29:09.070Z,99890.22
2023-09-06T04:31:37.525Z,99904.13
2023-09-06T04:34:06.566Z,99900.22
2023-09-06T04:36:38.296Z,99919.41
2023-09-06T04:39:09.542Z,99918.25
2023-09-06T04:41:39.492Z,99927.75
2023-09-06T04:44:08.645Z,99927.44
2023-09-06T04:46:37.271Z,99916.81
2023-09-06T04:49:05.993Z,99922.63
2023-09-06T04:51:34.464Z,99916.72
2023-09-06T04:54:03.089Z,99918.06
2023-09-06T04:59:02.046Z,99926.34
2023-09-06T05:01:30.787Z,99920.97
2023-09-06T05:03:59.880Z,99927.88
2023-09-06T05:06:28.405Z,99922.03
2023-09-06T05:08:56.963Z,99934.19
2023-09-06T05:11:25.501Z,99927.47
2023-09-06T05:13:54.900Z,99922.94
2023-09-06T05:16:24.896Z,99921.19
2023-09-06T05:18:54.228Z,99920.28
2023-09-06T05:21:22.762Z,99923.28
2023-09-06T05:23:51.235Z,99922.34
2023-09-06T05:26:19.743Z,99925.88
2023-09-06T05:28:50.177Z,99926.88
2023-09-06T05:31:20.378Z,99930.09
2023-09-06T05:33:50.421Z,99925.25
2023-09-06T05:36:18.931Z,99928.44
2023-09-06T05:38:47.415Z,99928.84
2023-09-06T05:41:16.799Z,99918.38
2023-09-06T05:43:46.261Z,99926.63
2023-09-06T05:46:30.407Z,99929.00
2023-09-06T05:49:03.326Z,99922.69
2023-09-06T05:51:31.995Z,99930.63
2023-09-06T05:54:01.800Z,99921.84
2023-09-06T05:56:30.851Z,99942.59
2023-09-06T05:59:01.021Z,99936.75
2023-09-06T06:01:29.500Z,99947.25
2023-09-06T06:03:57.998Z,99945.91
2023-09-06T06:06:28.531Z,99946.97
2023-09-06T06:08:56.969Z,99950.88
2023-09-06T06:11:27.740Z,99940.44
2023-09-06T06:14:09.713Z,99947.75
2023-09-06T06:16:41.873Z,99948.97
2023-09-06T06:19:12.572Z,99950.66
2023-09-06T06:21:42.954Z,99954.34
2023-09-06T06:24:11.687Z,99955.50
2023-09-06T06:26:40.237Z,99963.94
2023-09-06T06:29:08.858Z,99956.69
2023-09-06T06:31:37.709Z,99962.00
2023-09-06T06:34:06.888Z,99961.16
2023-09-06T06:36:35.473Z,99959.53
2023-09-06T06:39:06.226Z,99963.50
2023-09-06T06:41:33.703Z,99958.41
2023-09-06T06:44:02.309Z,99954.00
2023-09-06T06:46:33.218Z,99965.53
2023-09-06T06:49:05.811Z,99966.34
2023-09-06T06:51:43.154Z,99967.19
2023-09-06T06:54:15.993Z,99962.88
2023-09-06T06:56:45.084Z,99959.88
2023-09-06T06:59:14.749Z,99969.94
2023-09-06T07:01:43.341Z,99956.09
2023-09-06T07:04:12.413Z,99958.34
2023-09-06T07:06:40.992Z,99959.66
2023-09-06T07:09:11.894Z,99954.00
2023-09-06T07:11:41.949Z,99956.56
2023-09-06T07:14:10.541Z,99966.72
2023-09-06T07:16:41.047Z,99960.91
2023-09-06T07:19:09.771Z,99959.38
2023-09-06T07:21:38.297Z,99963.91
2023-09-06T07:24:07.492Z,99959.19
2023-09-06T07:26:36.030Z,99961.94
2023-09-06T07:29:06.141Z,99957.13
2023-09-06T07:31:34.997Z,99956.22
2023-09-06T07:34:05.220Z,99960.59
2023-09-06T07:36:33.812Z,99953.25
2023-09-06T07:39:02.354Z,99956.13
2023-09-06T07:41:30.908Z,99964.47
2023-09-06T07:43:59.447Z,99961.72
2023-09-06T07:46:31.036Z,99962.94
2023-09-06T07:48:59.973Z,99959.00
2023-09-06T07:51:28.708Z,99950.91
2023-09-06T07:53:57.652Z,99962.56
2023-09-06T07:56:26.301Z,99951.31
2023-09-06T07:58:55.082Z,99957.66
2023-09-06T08:01:24.207Z,99962.59
2023-09-06T08:03:54.254Z,99964.34
2023-09-06T08:06:22.842Z,99965.31
2023-09-06T08:08:51.380Z,99965.53
2023-09-06T08:11:20.113Z,99959.41
2023-09-06T08:13:48.663Z,99960.94
2023-09-06T08:16:17.841Z,99959.28
2023-09-06T08:18:47.829Z,99969.63
2023-09-06T08:21:17.971Z,99963.25
2023-09-06T08:23:46.618Z,99958.59
2023-09-06T08:26:15.250Z,99959.97
2023-09-06T08:28:43.752Z,99954.66
2023-09-06T08:31:12.473Z,99950.44
2023-09-06T08:33:41.329Z,99953.34
2023-09-06T08:36:09.997Z,99948.75
2023-09-06T08:38:40.456Z,99938.59
2023-09-06T08:41:09.956Z,99948.91
2023-09-06T08:43:43.544Z,99944.56
2023-09-06T08:46:20.983Z,99949.75
2023-09-06T08:48:50.746Z,99949.22
2023-09-06T08:51:21.976Z,99946.72
2023-09-06T08:53:52.323Z,99954.19
2023-09-06T08:56:21.601Z,99950.66
2023-09-06T08:58:50.074Z,99945.22
2023-09-06T09:01:18.916Z,99940.66
2023-09-06T09:03:47.750Z,99943.75
2023-09-06T09:06:16.534Z,99932.78
2023-09-06T09:08:45.135Z,99934.59
2023-09-06T09:11:17.611Z,99940.41
2023-09-06T09:13:46.747Z,99938.50
2023-09-06T09:16:17.827Z,99934.56
2023-09-06T09:18:48.724Z,99938.03
2023-09-06T09:21:17.752Z,99930.19
2023-09-06T09:23:48.144Z,99929.66
2023-09-06T09:26:21.271Z,99932.63
2023-09-06T09:28:50.108Z,99935.69
2023-09-06T09:31:19.085Z,99931.03
2023-09-06T09:33:53.309Z,99923.91
2023-09-06T09:36:22.326Z,99928.06
2023-09-06T09:38:51.621Z,99918.88
2023-09-06T09:41:22.442Z,99922.47
2023-09-06T09:43:50.999Z,99919.75
2023-09-06T09:46:30.640Z,99922.97
2023-09-06T09:49:02.659Z,99916.09
2023-09-06T09:51:35.384Z,99921.00
2023-09-06T09:54:05.182Z,99916.63
2023-09-06T09:56:39.614Z,99903.28
2023-09-06T09:59:09.596Z,99905.81
2023-09-06T10:01:40.835Z,99913.22
2023-09-06T10:04:13.793Z,99907.66
2023-09-06T10:06:43.182Z,99904.16
2023-09-06T10:09:14.170Z,99903.41
2023-09-06T10:11:44.874Z,99905.03
2023-09-06T10:14:14.621Z,99899.06
2023-09-06T10:16:43.185Z,99900.78
2023-09-06T10:19:13.308Z,99892.44
2023-09-06T10:21:43.313Z,99899.78
2023-09-06T10:24:20.144Z,99895.78
2023-09-06T10:26:54.873Z,99886.53
2023-09-06T10:29:27.004Z,99890.63
2023-09-06T10:31:55.874Z,99878.16
2023-09-06T10:34:24.916Z,99889.94
2023-09-06T10:36:58.429Z,99889.66
2023-09-06T10:39:30.346Z,99879.84
2023-09-06T10:42:33.528Z,99881.13
2023-09-06T10:45:16.625Z,99879.03
2023-09-06T10:47:45.418Z,99882.94
2023-09-06T10:50:18.852Z,99878.63
2023-09-06T10:52:51.593Z,99884.72
2023-09-06T10:55:23.104Z,99879.78
2023-09-06T10:58:07.705Z,99878.00
2023-09-06T11:00:36.499Z,99873.72
2023-09-06T11:03:15.055Z,99861.69
2023-09-06T11:05:47.324Z,99852.75
2023-09-06T11:08:33.976Z,99847.47
2023-09-06T11:11:14.030Z,99847.03
2023-09-06T11:13:47.070Z,99834.69
2023-09-06T11:16:17.866Z,99843.91
2023-09-06T11:18:48.596Z,99839.97
2023-09-06T11:21:21.477Z,99838.06
2023-09-06T11:23:51.815Z,99839.03
2023-09-06T11:26:21.853Z,99841.53
2023-09-06T11:29:05.062Z,99837.06
2023-09-06T11:31:34.869Z,99839.16
2023-09-06T11:34:10.601Z,99838.78
2023-09-06T11:36:39.536Z,99837.50
2023-09-06T11:39:17.441Z,99832.97
2023-09-06T11:41:47.007Z,99830.97
2023-09-06T11:44:20.407Z,99829.28
2023-09-06T11:46:50.109Z,99829.09
2023-09-06T11:49:22.679Z,99832.66
2023-09-06T11:51:55.241Z,99829.66
2023-09-06T11:54:28.430Z,99824.09
2023-09-06T11:56:58.839Z,99826.34
2023-09-06T11:59:33.009Z,99818.38
2023-09-06T12:02:02.709Z,99817.69
2023-09-06T12:04:33.457Z,99819.56
2023-09-06T12:07:04.070Z,99811.00
2023-09-06T12:09:34.205Z,99818.97
2023-09-06T12:12:06.174Z,99816.41
2023-09-06T12:14:36.334Z,99813.47
2023-09-06T12:17:06.489Z,99804.88
2023-09-06T12:19:36.262Z,99801.16
2023-09-06T12:22:06.600Z,99791.59
2023-09-06T12:24:35.646Z,99805.16
2023-09-06T12:27:04.978Z,99795.78
2023-09-06T12:29:33.588Z,99788.84
2023-09-06T12:32:06.059Z,99789.75
2023-09-06T12:34:34.760Z,99779.06
2023-09-06T12:37:04.029Z,99774.88
2023-09-06T12:39:32.582Z,99776.88
2023-09-06T12:42:01.123Z,99782.72
2023-09-06T12:44:29.733Z,99774.16
2023-09-06T12:46:58.349Z,99766.44
2023-09-06T12:49:28.210Z,99778.06
2023-09-06T12:51:56.669Z,99767.13
2023-09-06T12:54:25.315Z,99770.47
2023-09-06T12:56:53.893Z,99763.03
2023-09-06T12:59:22.477Z,99759.59
2023-09-06T13:01:51.697Z,99761.91
2023-09-06T13:04:20.321Z,99756.88
2023-09-06T13:06:50.258Z,99752.84
2023-09-06T13:09:19.376Z,99764.75
2023-09-06T13:11:47.901Z,99753.03
2023-09-06T13:14:16.558Z,99753.56
2023-09-06T13:16:45.159Z,99747.66
2023-09-06T13:19:16.151Z,99743.09
2023-09-06T13:21:45.764Z,99744.88
2023-09-06T13:24:17.637Z,99745.25
2023-09-06T13:26:48.101Z,99750.38
2023-09-06T13:29:16.778Z,99745.66
2023-09-06T13:31:45.586Z,99742.13
2023-09-06T13:34:14.248Z,99739.91
2023-09-06T13:36:42.794Z,99734.72
2023-09-06T13:39:12.225Z,99727.88
2023-09-06T13:41:44.202Z,99733.56
2023-09-06T13:44:12.889Z,99730.53
2023-09-06T13:46:41.615Z,99724.66
2023-09-06T13:49:10.479Z,99724.19
2023-09-06T13:51:39.807Z,99723.06
2023-09-06T13:54:08.999Z,99715.31
2023-09-06T13:56:37.592Z,99724.91
2023-09-06T13:59:08.455Z,99716.25
2023-09-06T14:01:37.025Z,99713.91
2023-09-06T14:04:06.254Z,99708.75
2023-09-06T14:06:34.859Z,99712.28
2023-09-06T14:09:03.838Z,99711.59
2023-09-06T14:11:32.447Z,99705.47
2023-09-06T14:14:00.974Z,99701.47
2023-09-06T14:16:32.190Z,99698.78
2023-09-06T14:19:00.801Z,99692.19
2023-09-06T14:21:29.861Z,99691.13
2023-09-06T14:23:58.386Z,99701.41
2023-09-06T14:26:27.593Z,99698.00
2023-09-06T14:28:56.870Z,99696.97
2023-09-06T14:31:25.498Z,99700.28
2023-09-06T14:33:55.732Z,99694.09
2023-09-06T14:36:24.209Z,99696.97
2023-09-06T14:38:55.455Z,99693.19
2023-09-06T14:41:25.776Z,99692.88
2023-09-06T14:43:56.196Z,99689.13
2023-09-06T14:46:24.885Z,99696.88
2023-09-06T14:48:55.031Z,99694.94
2023-09-06T14:51:25.449Z,99693.78
2023-09-06T14:53:54.062Z,99693.69
2023-09-06T14:56:22.640Z,99694.50
2023-09-06T14:58:51.254Z,99686.22
2023-09-06T15:01:23.029Z,99690.47
2023-09-06T15:03:52.319Z,99700.28
2023-09-06T15:06:22.945Z,99692.00
2023-09-06T15:08:57.529Z,99700.00
2023-09-06T15:11:29.267Z,99690.88
2023-09-06T15:13:58.303Z,99694.28
2023-09-06T15:16:28.132Z,99700.50
2023-09-06T15:18:57.467Z,99698.91
2023-09-06T15:21:28.398Z,99699.41
2023-09-06T15:23:58.138Z,99711.19
2023-09-06T15:26:27.089Z,99706.75
2023-09-06T15:28:57.163Z,99707.53
2023-09-06T15:31:29.417Z,99712.38
2023-09-06T15:33:59.632Z,99716.41
2023-09-06T15:36:32.024Z,99712.31
2023-09-06T15:39:01.202Z,99712.25
2023-09-06T15:41:33.920Z,99711.78
2023-09-06T15:44:06.296Z,99705.69
2023-09-06T15:46:37.666Z,99703.56
2023-09-06T15:49:07.575Z,99702.69
2023-09-06T15:51:37.683Z,99712.38
2023-09-06T15:54:06.970Z,99713.94
2023-09-06T15:56:36.029Z,99712.66
2023-09-06T15:59:05.866Z,99713.34
2023-09-06T16:01:35.540Z,99720.56
2023-09-06T16:04:05.945Z,99717.25
2023-09-06T16:06:36.349Z,99720.84
2023-09-06T16:09:09.912Z,99720.38
2023-09-06T16:11:39.206Z,99721.88
2023-09-06T16:14:09.094Z,99724.22
2023-09-06T16:16:40.959Z,99729.00
2023-09-06T16:19:12.871Z,99721.59
2023-09-06T16:21:43.859Z,99723.56
2023-09-06T16:24:18.804Z,99725.50
2023-09-06T16:26:59.551Z,99723.78
2023-09-06T16:29:29.419Z,99725.28
2023-09-06T16:32:01.658Z,99724.38
2023-09-06T16:34:38.108Z,99727.53
2023-09-06T16:37:10.744Z,99722.53
2023-09-06T16:39:41.773Z,99732.16
2023-09-06T16:42:12.022Z,99736.91
2023-09-06T16:44:42.981Z,99739.19
2023-09-06T16:47:13.456Z,99738.66
2023-09-06T16:49:45.669Z,99736.53
2023-09-06T16:52:18.221Z,99738.84
2023-09-06T16:54:47.386Z,99744.75
2023-09-06T16:57:17.681Z,99743.03
2023-09-06T16:59:48.115Z,99737.22
2023-09-06T17:02:17.297Z,99739.94
2023-09-06T17:04:48.228Z,99744.66
2023-09-06T17:07:20.160Z,99742.91
2023-09-06T17:09:51.149Z,99747.25
2023-09-06T17:12:22.199Z,99747.13
2023-09-06T17:14:51.517Z,99756.28
2023-09-06T17:17:21.930Z,99757.00
2023-09-06T17:19:52.082Z,99753.19
2023-09-06T17:22:23.064Z,99756.69
2023-09-06T17:24:52.684Z,99758.22
2023-09-06T17:27:22.505Z,99754.03
2023-09-06T17:29:52.318Z,99762.75
2023-09-06T17:32:23.250Z,99762.63
2023-09-06T17:34:53.218Z,99767.78
2023-09-06T17:37:23.331Z,99768.81
2023-09-06T17:39:54.088Z,99785.59
2023-09-06T17:42:23.716Z,99782.25
2023-09-06T17:44:59.875Z,99776.78
2023-09-06T17:47:31.152Z,99785.09
2023-09-06T17:50:02.014Z,99794.25
2023-09-06T17:52:33.418Z,99793.25
2023-09-06T17:55:01.992Z,99785.44
2023-09-06T17:57:32.553Z,99794.56
2023-09-06T18:00:02.506Z,99795.63
2023-09-06T18:02:33.940Z,99800.69
2023-09-06T18:05:04.118Z,99808.13
2023-09-06T18:07:39.113Z,99797.88
2023-09-06T18:10:11.132Z,99798.88
2023-09-06T18:12:43.366Z,99800.34
2023-09-06T18:15:18.632Z,99798.06
2023-09-06T18:17:52.706Z,99808.81
2023-09-06T18:20:22.945Z,99814.28
2023-09-06T18:22:55.116Z,99812.84
2023-09-06T18:25:28.105Z,99815.47
2023-09-06T18:27:57.659Z,99813.75
2023-09-06T18:30:29.489Z,99818.47
2023-09-06T18:33:02.353Z,99819.56
2023-09-06T18:35:31.001Z,99809.38
2023-09-06T18:38:06.772Z,99815.28
2023-09-06T18:40:37.005Z,99817.63
2023-09-06T18:43:11.154Z,99823.19
2023-09-06T18:45:45.512Z,99813.78
2023-09-06T18:48:24.394Z,99824.16
2023-09-06T18:50:56.046Z,99819.25
2023-09-06T18:53:28.785Z,99818.31
2023-09-06T18:55:59.961Z,99826.69
2023-09-06T18:58:31.074Z,99828.22
2023-09-06T19:01:01.761Z,99827.25
2023-09-06T19:03:31.764Z,99832.44
2023-09-06T19:06:03.508Z,99830.31
2023-09-06T19:08:39.127Z,99822.94
2023-09-06T19:11:11.503Z,99824.47
2023-09-06T19:13:44.465Z,99826.38
2023-09-06T19:16:19.766Z,99833.88
2023-09-06T19:18:49.722Z,99825.34
2023-09-06T19:21:22.689Z,99822.78
2023-09-06T19:23:55.545Z,99824.31
2023-09-06T19:26:28.722Z,99822.56
2023-09-06T19:28:59.157Z,99815.53
2023-09-06T19:31:35.083Z,99819.44
2023-09-06T19:34:07.168Z,99829.75
2023-09-06T19:36:38.252Z,99817.56
2023-09-06T19:39:12.547Z,99826.19
2023-09-06T19:41:44.910Z,99819.31
2023-09-06T19:44:16.060Z,99823.53
2023-09-06T19:46:47.262Z,99818.97
2023-09-06T19:49:19.204Z,99830.44
2023-09-06T19:51:50.104Z,99823.53
2023-09-06T19:54:34.956Z,99822.03
2023-09-06T19:57:07.464Z,99821.53
2023-09-06T19:59:37.749Z,99821.06
2023-09-06T20:02:09.505Z,99824.63
2023-09-06T20:04:41.600Z,99824.03
2023-09-06T20:07:11.760Z,99832.69
2023-09-06T20:09:43.465Z,99826.81
2023-09-06T20:12:13.487Z,99832.34
2023-09-06T20:14:45.577Z,99826.44
2023-09-06T20:17:19.208Z,99832.75
2023-09-06T20:19:51.435Z,99832.19
2023-09-06T20:22:21.183Z,99834.50
2023-09-06T20:24:52.026Z,99830.75
2023-09-06T20:27:22.052Z,99835.88
2023-09-06T20:29:53.354Z,99832.13
2023-09-06T20:32:22.742Z,99828.88
2023-09-06T20:34:54.530Z,99831.88
2023-09-06T20:37:27.872Z,99828.13
2023-09-06T20:39:58.408Z,99837.94
2023-09-06T20:42:28.964Z,99827.75
2023-09-06T20:44:59.527Z,99829.63
2023-09-06T20:47:29.416Z,99829.81
2023-09-06T20:49:59.929Z,99835.66
2023-09-06T20:52:30.006Z,99833.84
2023-09-06T20:55:02.254Z,99830.47
2023-09-06T20:57:31.809Z,99831.59
2023-09-06T21:00:01.579Z,99828.22
2023-09-06T21:02:30.369Z,99829.72
2023-09-06T21:04:59.144Z,99830.75
2023-09-06T21:07:27.717Z,99830.59
2023-09-06T21:09:56.163Z,99829.66
2023-09-06T21:12:26.304Z,99824.72
2023-09-06T21:14:54.858Z,99822.94
2023-09-06T21:17:23.462Z,99830.88
2023-09-06T21:19:52.136Z,99825.16
2023-09-06T21:22:20.676Z,99833.78
2023-09-06T21:24:49.101Z,99835.28
2023-09-06T21:27:17.635Z,99835.94
2023-09-06T21:29:47.857Z,99833.03
2023-09-06T21:32:16.348Z,99840.13
2023-09-06T21:34:44.935Z,99839.19
2023-09-06T21:37:13.595Z,99831.78
2023-09-06T21:39:42.382Z,99837.22
2023-09-06T21:42:11.095Z,99832.63
2023-09-06T21:44:40.295Z,99851.31
2023-09-06T21:47:10.319Z,99842.72
2023-09-06T21:49:38.908Z,99847.03
2023-09-06T21:52:07.733Z,99847.72
2023-09-06T21:54:36.319Z,99847.56
2023-09-06T21:57:05.668Z,99846.25
2023-09-06T21:59:35.322Z,99846.13
2023-09-06T22:02:04.101Z,99845.19
2023-09-06T22:04:34.117Z,99841.91
2023-09-06T22:07:02.707Z,99849.78
2023-09-06T22:09:31.293Z,99852.47
2023-09-06T22:11:59.897Z,99851.50
2023-09-06T22:14:28.464Z,99849.38
2023-09-06T22:16:57.038Z,99840.31
2023-09-06T22:19:25.527Z,99847.75
2023-09-06T22:21:55.553Z,99852.41
2023-09-06T22:24:24.164Z,99856.22
2023-09-06T22:26:52.677Z,99857.19
2023-09-06T22:29:21.179Z,99862.63
2023-09-06T22:31:49.829Z,99859.34
2023-09-06T22:34:19.835Z,99870.72
2023-09-06T22:36:48.566Z,99866.63
2023-09-06T22:39:18.500Z,99866.47
2023-09-06T22:41:47.058Z,99865.50
2023-09-06T22:44:15.491Z,99869.31
2023-09-06T22:46:44.112Z,99864.34
2023-09-06T22:49:12.627Z,99869.81
2023-09-06T22:51:43.444Z,99876.41
2023-09-06T22:54:12.444Z,99872.31
2023-09-06T22:56:45.275Z,99867.69
2023-09-06T22:59:15.017Z,99868.00
2023-09-06T23:01:44.149Z,99874.31
2023-09-06T23:04:13.019Z,99874.13
2023-09-06T23:06:41.534Z,99879.22
2023-09-06T23:09:12.290Z,99870.34
2023-09-06T23:11:51.459Z,99874.13
2023-09-06T23:14:21.555Z,99875.28
2023-09-06T23:16:51.317Z,99867.22
2023-09-06T23:19:25.463Z,99868.72
2023-09-06T23:21:58.311Z,99862.94
2023-09-06T23:24:29.057Z,99854.84
2023-09-06T23:27:00.515Z,99854.69
2023-09-06T23:29:31.527Z,99860.59
2023-09-06T23:32:00.549Z,99861.28
2023-09-06T23:34:31.579Z,99851.56
2023-09-06T23:37:00.978Z,99855.50
2023-09-06T23:39:29.756Z,99856.19
2023-09-06T23:42:08.820Z,99849.28
2023-09-06T23:44:37.434Z,99847.13
2023-09-06T23:47:07.846Z,99852.56
2023-09-06T23:49:37.449Z,99855.69
2023-09-06T23:52:07.030Z,99854.69
2023-09-06T23:54:46.381Z,99858.16
2023-09-06T23:57:19.118Z,99852.06
2023-09-06T23:59:48.579Z,99850.25
